Arctic Bay — 9HTD8 — position and weather

sailwx.info

Track history (hours):
 
Tides and Currents Weather Stations Pressure Air Temp Water Temp Dewpoint Dewpoint Depression Visibility Wind Speed Wind Dir Waves Ship Positions

Arctic Bay

Last reported at 2014-Oct-31 19:33 UTC. Time now 2014-Nov-01 02:31 UTC.
Position N 59°35' E 023°06'.

Length 182 m; draft 12.1 m.

Type: Tanker. MMSI: 256396000.

Date/timePositionNaut miles runAvg speedWind from/ knotsBaromVisibWave heightAir tempDewpointWater temp
2014-Oct-31 19:33N 59°35' E 023°06'1313.0
2014-Oct-31 18:32N 59°39' E 023°31'1313.1
2014-Oct-31 17:33N 59°42' E 023°56'1313.0
2014-Oct-31 16:33N 59°46' E 024°21'1313.0
2014-Oct-31 15:32N 59°49' E 024°46'5312.8
2014-Oct-31 11:26N 60°01' E 026°29'1512.5
2014-Oct-31 10:12N 59°60' E 026°59'11 0.3
2014-Oct-29 16:18N 60°03' E 027°20'911.1
2014-Oct-29 15:29N 59°58' E 027°04'1112.0
2014-Oct-29 14:33N 59°59' E 026°42'1110.6
2014-Oct-29 13:30N 59°57' E 026°21'1010.7
2014-Oct-29 12:33N 59°54' E 026°01'1110.7
2014-Oct-29 11:32N 59°52' E 025°40'3510.8
2014-Oct-29 08:17N 59°44' E 024°32'912.6
2014-Oct-29 07:33N 59°42' E 024°14'1211.7
2014-Oct-29 06:33N 59°38' E 023°52'1311.0
2014-Oct-29 05:22N 59°34' E 023°28'1010.7
2014-Oct-29 04:27N 59°30' E 023°10'1010.5
2014-Oct-29 03:29N 59°27' E 022°51'2310.6
2014-Oct-29 01:22N 59°16' E 022°13'2011.0
2014-Oct-28 23:33N 59°03' E 021°43'1211.3
2014-Oct-28 22:32N 58°53' E 021°31'9311.2
2014-Oct-28 14:16N 57°33' E 020°03'1210.9
2014-Oct-28 13:11N 57°25' E 019°48'2911.1
2014-Oct-28 10:33N 57°06' E 019°06'1110.8
2014-Oct-28 09:33N 56°59' E 018°52'1110.9
2014-Oct-28 08:33N 56°52' E 018°36'1212.0
2014-Oct-28 07:33N 56°44' E 018°19'1211.9
2014-Oct-28 06:33N 56°37' E 018°02'1110.9
2014-Oct-28 05:33N 56°30' E 017°47'1610.9
2014-Oct-28 04:07N 56°20' E 017°25'610.8
2014-Oct-28 03:33N 56°16' E 017°16'2210.8
2014-Oct-28 01:31N 56°03' E 016°45'4610.9
2014-Oct-27 21:18N 55°41' E 015°33'810.9
2014-Oct-27 20:33N 55°37' E 015°20'1111.0
2014-Oct-27 19:34N 55°32' E 015°03'1110.9
2014-Oct-27 18:34N 55°27' E 014°46'1111.0
2014-Oct-27 17:33N 55°19' E 014°33'1111.1
2014-Oct-27 16:33N 55°10' E 014°20'1212.0
2014-Oct-27 15:33N 55°11' E 013°59'1111.0
2014-Oct-27 14:33N 55°12' E 013°40'2211.0
2014-Oct-27 12:33N 55°14' E 013°02'1110.7
2014-Oct-27 11:33N 55°16' E 012°44'9 8.9
2014-Oct-27 10:33N 55°25' E 012°40'1010.3
2014-Oct-27 09:33N 55°35' E 012°42'1312.6
2014-Oct-27 08:33N 55°48' E 012°42'1212.5
2014-Oct-27 07:34N 56°00' E 012°38'1211.6
2014-Oct-27 06:33N 56°09' E 012°25'10 9.7
2014-Oct-27 05:33N 56°15' E 012°11'1010.0
2014-Oct-27 04:33N 56°23' E 012°01'1110.5
2014-Oct-27 03:32N 56°34' E 011°57'1110.7
2014-Oct-27 02:32N 56°44' E 011°53'1010.5
2014-Oct-27 01:33N 56°54' E 011°45'1110.8
2014-Oct-27 00:33N 57°04' E 011°40'1110.6
2014-Oct-26 23:33N 57°14' E 011°33'1110.9
2014-Oct-26 22:33N 57°24' E 011°27'1110.7
2014-Oct-26 21:33N 57°33' E 011°14'1111.0
2014-Oct-26 20:33N 57°40' E 010°59'1111.0
2014-Oct-26 19:33N 57°47' E 010°43'1312.6
2014-Oct-26 18:33N 57°47' E 010°20'27110.7
2014-Oct-25 17:20N 54°21' E 005°05'911.0
2014-Oct-25 16:30N 54°13' E 004°57'1110.7
2014-Oct-25 15:26N 54°03' E 004°46'910.5
2014-Oct-25 14:33N 53°56' E 004°37'14510.9
2014-Oct-25 01:19N 51°50' E 002°40'911.6
2014-Oct-25 00:32N 51°42' E 002°31'1211.7
2014-Oct-24 23:33N 51°33' E 002°19'1111.1
2014-Oct-24 22:34N 51°24' E 002°12'1111.0
2014-Oct-24 21:33N 51°14' E 002°04'1110.5
2014-Oct-24 20:34N 51°08' E 001°50'6 6.2
2014-Oct-24 19:34N 51°02' E 001°49'1111.4
2014-Oct-24 18:34N 51°03' E 002°07'8 8.2
2014-Oct-24 17:32N 51°03' E 002°20'1 0.7
2014-Oct-24 16:32N 51°03' E 002°21'0 0.0
2014-Oct-24 15:29N 51°03' E 002°21'0 0.0
2014-Oct-24 14:29N 51°03' E 002°21'0 0.0
2014-Oct-24 13:26N 51°03' E 002°21'0 0.0
2014-Oct-24 12:32N 51°03' E 002°21'0 0.0
2014-Oct-24 11:29N 51°03' E 002°21'0 0.0
2014-Oct-24 10:32N 51°03' E 002°21'0 0.0
2014-Oct-24 09:32N 51°03' E 002°21'0 0.0
2014-Oct-24 08:32N 51°03' E 002°21'0 0.0
2014-Oct-24 07:32N 51°03' E 002°21'0 0.0
2014-Oct-24 06:32N 51°03' E 002°21'0 0.0
2014-Oct-24 05:32N 51°03' E 002°21'0 0.0
2014-Oct-24 04:32N 51°03' E 002°21'0 0.0
2014-Oct-24 03:29N 51°03' E 002°21'0 0.0
2014-Oct-24 02:29N 51°03' E 002°21'0 0.0
2014-Oct-24 01:32N 51°03' E 002°21'0 0.0
2014-Oct-24 00:32N 51°03' E 002°21'0 0.0
2014-Oct-23 23:32N 51°03' E 002°21'0 0.0
2014-Oct-23 22:26N 51°03' E 002°21'0 0.0
2014-Oct-23 21:32N 51°03' E 002°21'0 0.0
2014-Oct-23 20:29N 51°03' E 002°21'0 0.0
2014-Oct-23 19:32N 51°03' E 002°21'0 0.0
2014-Oct-23 18:29N 51°03' E 002°21'0 0.0
2014-Oct-23 17:29N 51°03' E 002°21'0 0.0
2014-Oct-23 16:29N 51°03' E 002°21'0 0.0
2014-Oct-23 15:32N 51°03' E 002°21'0 0.0
2014-Oct-23 14:29N 51°03' E 002°21'0 0.0
2014-Oct-23 13:32N 51°03' E 002°21'0 0.0
2014-Oct-23 12:32N 51°03' E 002°21'0 0.0
2014-Oct-23 11:32N 51°03' E 002°21'0 0.0
2014-Oct-23 10:29N 51°03' E 002°21'0 0.0
2014-Oct-23 09:32N 51°03' E 002°21'0 0.0
2014-Oct-23 08:29N 51°03' E 002°21'0 0.0
2014-Oct-23 07:29N 51°03' E 002°21'0 0.0
2014-Oct-23 06:23N 51°03' E 002°21'0 0.0
2014-Oct-23 05:32N 51°03' E 002°21'0 0.0
2014-Oct-23 04:32N 51°03' E 002°21'0 0.0
2014-Oct-23 03:26N 51°03' E 002°21'0 0.0
2014-Oct-23 02:32N 51°03' E 002°21'0 0.0
2014-Oct-23 01:32N 51°03' E 002°21'0 0.0
2014-Oct-23 00:32N 51°03' E 002°21'0 0.0
2014-Oct-22 23:29N 51°03' E 002°21'0 0.0
2014-Oct-22 22:32N 51°03' E 002°21'0 0.0
2014-Oct-22 21:29N 51°03' E 002°21'0 0.0
2014-Oct-22 20:32N 51°03' E 002°21'0 0.0
2014-Oct-22 19:32N 51°03' E 002°21'0 0.0
2014-Oct-22 18:29N 51°03' E 002°21'0 0.0
2014-Oct-22 17:32N 51°03' E 002°21'0 0.0
2014-Oct-22 16:32N 51°03' E 002°21'0 0.0
2014-Oct-22 15:32N 51°03' E 002°21'0 0.0
2014-Oct-22 14:32N 51°03' E 002°21'1 0.7
2014-Oct-22 13:33N 51°03' E 002°21'2 2.2
2014-Oct-22 12:33N 51°04' E 002°17'1212.0
2014-Oct-22 11:33N 51°02' E 001°58'6 5.8
2014-Oct-22 10:31N 51°03' E 001°49'0 0.2
2014-Oct-22 09:31N 51°03' E 001°49'1 0.6
2014-Oct-22 08:28N 51°03' E 001°48'0 0.1
2014-Oct-22 06:31N 51°03' E 001°48'0 0.1
2014-Oct-22 05:33N 51°03' E 001°48'4 4.0
2014-Oct-22 04:34N 51°05' E 001°42'8 7.8
2014-Oct-22 03:33N 51°12' E 001°45'10 9.8
2014-Oct-22 02:33N 51°20' E 001°54'7 6.8
2014-Oct-22 01:33N 51°24' E 002°03'7 6.9
2014-Oct-22 00:33N 51°18' E 002°08'7 7.2
2014-Oct-21 23:34N 51°12' E 002°01'9 9.3
2014-Oct-21 22:33N 51°08' E 001°47'4 3.7
2014-Oct-21 21:33N 51°11' E 001°43'8 8.3
2014-Oct-21 20:33N 51°18' E 001°50'9 8.8
2014-Oct-21 19:33N 51°25' E 001°57'  
Track history (hours):
 
Tides and Currents Weather Stations Pressure Air Temp Water Temp Dewpoint Dewpoint Depression Visibility Wind Speed Wind Dir Waves Ship Positions

Arctic Bay

Last reported at 2014-Oct-31 19:33 UTC. Time now 2014-Nov-01 02:31 UTC.
Position N 59°35' E 023°06'.

Length 182 m; draft 12.1 m.

Type: Tanker. MMSI: 256396000.

Date/timePositionNaut miles runAvg speedWind from/ knotsBaromVisibWave heightAir tempDewpointWater temp
2014-Oct-31 19:33N 59°35' E 023°06'1313.0
2014-Oct-31 18:32N 59°39' E 023°31'1313.1
2014-Oct-31 17:33N 59°42' E 023°56'1313.0
2014-Oct-31 16:33N 59°46' E 024°21'1313.0
2014-Oct-31 15:32N 59°49' E 024°46'5312.8
2014-Oct-31 11:26N 60°01' E 026°29'1512.5
2014-Oct-31 10:12N 59°60' E 026°59'11 0.3
2014-Oct-29 16:18N 60°03' E 027°20'911.1
2014-Oct-29 15:29N 59°58' E 027°04'1112.0
2014-Oct-29 14:33N 59°59' E 026°42'1110.6
2014-Oct-29 13:30N 59°57' E 026°21'1010.7
2014-Oct-29 12:33N 59°54' E 026°01'1110.7
2014-Oct-29 11:32N 59°52' E 025°40'3510.8
2014-Oct-29 08:17N 59°44' E 024°32'912.6
2014-Oct-29 07:33N 59°42' E 024°14'1211.7
2014-Oct-29 06:33N 59°38' E 023°52'1311.0
2014-Oct-29 05:22N 59°34' E 023°28'1010.7
2014-Oct-29 04:27N 59°30' E 023°10'1010.5
2014-Oct-29 03:29N 59°27' E 022°51'2310.6
2014-Oct-29 01:22N 59°16' E 022°13'2011.0
2014-Oct-28 23:33N 59°03' E 021°43'1211.3
2014-Oct-28 22:32N 58°53' E 021°31'9311.2
2014-Oct-28 14:16N 57°33' E 020°03'1210.9
2014-Oct-28 13:11N 57°25' E 019°48'2911.1
2014-Oct-28 10:33N 57°06' E 019°06'1110.8
2014-Oct-28 09:33N 56°59' E 018°52'1110.9
2014-Oct-28 08:33N 56°52' E 018°36'1212.0
2014-Oct-28 07:33N 56°44' E 018°19'1211.9
2014-Oct-28 06:33N 56°37' E 018°02'1110.9
2014-Oct-28 05:33N 56°30' E 017°47'1610.9
2014-Oct-28 04:07N 56°20' E 017°25'610.8
2014-Oct-28 03:33N 56°16' E 017°16'2210.8
2014-Oct-28 01:31N 56°03' E 016°45'4610.9
2014-Oct-27 21:18N 55°41' E 015°33'810.9
2014-Oct-27 20:33N 55°37' E 015°20'1111.0
2014-Oct-27 19:34N 55°32' E 015°03'1110.9
2014-Oct-27 18:34N 55°27' E 014°46'1111.0
2014-Oct-27 17:33N 55°19' E 014°33'1111.1
2014-Oct-27 16:33N 55°10' E 014°20'1212.0
2014-Oct-27 15:33N 55°11' E 013°59'1111.0
2014-Oct-27 14:33N 55°12' E 013°40'2211.0
2014-Oct-27 12:33N 55°14' E 013°02'1110.7
2014-Oct-27 11:33N 55°16' E 012°44'9 8.9
2014-Oct-27 10:33N 55°25' E 012°40'1010.3
2014-Oct-27 09:33N 55°35' E 012°42'1312.6
2014-Oct-27 08:33N 55°48' E 012°42'1212.5
2014-Oct-27 07:34N 56°00' E 012°38'1211.6
2014-Oct-27 06:33N 56°09' E 012°25'10 9.7
2014-Oct-27 05:33N 56°15' E 012°11'1010.0
2014-Oct-27 04:33N 56°23' E 012°01'1110.5
2014-Oct-27 03:32N 56°34' E 011°57'1110.7
2014-Oct-27 02:32N 56°44' E 011°53'1010.5
2014-Oct-27 01:33N 56°54' E 011°45'1110.8
2014-Oct-27 00:33N 57°04' E 011°40'1110.6
2014-Oct-26 23:33N 57°14' E 011°33'1110.9
2014-Oct-26 22:33N 57°24' E 011°27'1110.7
2014-Oct-26 21:33N 57°33' E 011°14'1111.0
2014-Oct-26 20:33N 57°40' E 010°59'1111.0
2014-Oct-26 19:33N 57°47' E 010°43'1312.6
2014-Oct-26 18:33N 57°47' E 010°20'27110.7
2014-Oct-25 17:20N 54°21' E 005°05'911.0
2014-Oct-25 16:30N 54°13' E 004°57'1110.7
2014-Oct-25 15:26N 54°03' E 004°46'910.5
2014-Oct-25 14:33N 53°56' E 004°37'14510.9
2014-Oct-25 01:19N 51°50' E 002°40'911.6
2014-Oct-25 00:32N 51°42' E 002°31'1211.7
2014-Oct-24 23:33N 51°33' E 002°19'1111.1
2014-Oct-24 22:34N 51°24' E 002°12'1111.0
2014-Oct-24 21:33N 51°14' E 002°04'1110.5
2014-Oct-24 20:34N 51°08' E 001°50'6 6.2
2014-Oct-24 19:34N 51°02' E 001°49'1111.4
2014-Oct-24 18:34N 51°03' E 002°07'8 8.2
2014-Oct-24 17:32N 51°03' E 002°20'1 0.7
2014-Oct-24 16:32N 51°03' E 002°21'0 0.0
2014-Oct-24 15:29N 51°03' E 002°21'0 0.0
2014-Oct-24 14:29N 51°03' E 002°21'0 0.0
2014-Oct-24 13:26N 51°03' E 002°21'0 0.0
2014-Oct-24 12:32N 51°03' E 002°21'0 0.0
2014-Oct-24 11:29N 51°03' E 002°21'0 0.0
2014-Oct-24 10:32N 51°03' E 002°21'0 0.0
2014-Oct-24 09:32N 51°03' E 002°21'0 0.0
2014-Oct-24 08:32N 51°03' E 002°21'0 0.0
2014-Oct-24 07:32N 51°03' E 002°21'0 0.0
2014-Oct-24 06:32N 51°03' E 002°21'0 0.0
2014-Oct-24 05:32N 51°03' E 002°21'0 0.0
2014-Oct-24 04:32N 51°03' E 002°21'0 0.0
2014-Oct-24 03:29N 51°03' E 002°21'0 0.0
2014-Oct-24 02:29N 51°03' E 002°21'0 0.0
2014-Oct-24 01:32N 51°03' E 002°21'0 0.0
2014-Oct-24 00:32N 51°03' E 002°21'0 0.0
2014-Oct-23 23:32N 51°03' E 002°21'0 0.0
2014-Oct-23 22:26N 51°03' E 002°21'0 0.0
2014-Oct-23 21:32N 51°03' E 002°21'0 0.0
2014-Oct-23 20:29N 51°03' E 002°21'0 0.0
2014-Oct-23 19:32N 51°03' E 002°21'0 0.0
2014-Oct-23 18:29N 51°03' E 002°21'0 0.0
2014-Oct-23 17:29N 51°03' E 002°21'0 0.0
2014-Oct-23 16:29N 51°03' E 002°21'0 0.0
2014-Oct-23 15:32N 51°03' E 002°21'0 0.0
2014-Oct-23 14:29N 51°03' E 002°21'0 0.0
2014-Oct-23 13:32N 51°03' E 002°21'0 0.0
2014-Oct-23 12:32N 51°03' E 002°21'0 0.0
2014-Oct-23 11:32N 51°03' E 002°21'0 0.0
2014-Oct-23 10:29N 51°03' E 002°21'0 0.0
2014-Oct-23 09:32N 51°03' E 002°21'0 0.0
2014-Oct-23 08:29N 51°03' E 002°21'0 0.0
2014-Oct-23 07:29N 51°03' E 002°21'0 0.0
2014-Oct-23 06:23N 51°03' E 002°21'0 0.0
2014-Oct-23 05:32N 51°03' E 002°21'0 0.0
2014-Oct-23 04:32N 51°03' E 002°21'0 0.0
2014-Oct-23 03:26N 51°03' E 002°21'0 0.0
2014-Oct-23 02:32N 51°03' E 002°21'0 0.0
2014-Oct-23 01:32N 51°03' E 002°21'0 0.0
2014-Oct-23 00:32N 51°03' E 002°21'0 0.0
2014-Oct-22 23:29N 51°03' E 002°21'0 0.0
2014-Oct-22 22:32N 51°03' E 002°21'0 0.0
2014-Oct-22 21:29N 51°03' E 002°21'0 0.0
2014-Oct-22 20:32N 51°03' E 002°21'0 0.0
2014-Oct-22 19:32N 51°03' E 002°21'0 0.0
2014-Oct-22 18:29N 51°03' E 002°21'0 0.0
2014-Oct-22 17:32N 51°03' E 002°21'0 0.0
2014-Oct-22 16:32N 51°03' E 002°21'0 0.0
2014-Oct-22 15:32N 51°03' E 002°21'0 0.0
2014-Oct-22 14:32N 51°03' E 002°21'1 0.7
2014-Oct-22 13:33N 51°03' E 002°21'2 2.2
2014-Oct-22 12:33N 51°04' E 002°17'1212.0
2014-Oct-22 11:33N 51°02' E 001°58'6 5.8
2014-Oct-22 10:31N 51°03' E 001°49'0 0.2
2014-Oct-22 09:31N 51°03' E 001°49'1 0.6
2014-Oct-22 08:28N 51°03' E 001°48'0 0.1
2014-Oct-22 06:31N 51°03' E 001°48'0 0.1
2014-Oct-22 05:33N 51°03' E 001°48'4 4.0
2014-Oct-22 04:34N 51°05' E 001°42'8 7.8
2014-Oct-22 03:33N 51°12' E 001°45'10 9.8
2014-Oct-22 02:33N 51°20' E 001°54'7 6.8
2014-Oct-22 01:33N 51°24' E 002°03'7 6.9
2014-Oct-22 00:33N 51°18' E 002°08'7 7.2
2014-Oct-21 23:34N 51°12' E 002°01'9 9.3
2014-Oct-21 22:33N 51°08' E 001°47'4 3.7
2014-Oct-21 21:33N 51°11' E 001°43'8 8.3
2014-Oct-21 20:33N 51°18' E 001°50'9 8.8
2014-Oct-21 19:33N 51°25' E 001°57'  

Dump ship's entire track history